sensor_id;sensor_type;location;lat;lon;timestamp;P1;durP1;ratioP1;P2;durP2;ratioP2
27722;SDS011;15123;-37.794;175.246;2023-07-29T00:00:02;8.38;;;2.13;;
27722;SDS011;15123;-37.794;175.246;2023-07-29T00:03:28;6.18;;;2.00;;
27722;SDS011;15123;-37.794;175.246;2023-07-29T00:06:53;7.53;;;2.03;;
27722;SDS011;15123;-37.794;175.246;2023-07-29T00:10:17;6.00;;;1.63;;
27722;SDS011;15123;-37.794;175.246;2023-07-29T00:13:42;6.43;;;2.08;;
27722;SDS011;15123;-37.794;175.246;2023-07-29T00:17:07;7.80;;;2.67;;
27722;SDS011;15123;-37.794;175.246;2023-07-29T00:20:31;6.95;;;2.10;;
27722;SDS011;15123;-37.794;175.246;2023-07-29T00:23:55;8.02;;;1.73;;
27722;SDS011;15123;-37.794;175.246;2023-07-29T00:27:20;4.25;;;1.33;;
27722;SDS011;15123;-37.794;175.246;2023-07-29T00:30:44;5.05;;;1.60;;
27722;SDS011;15123;-37.794;175.246;2023-07-29T00:34:09;5.70;;;1.20;;
27722;SDS011;15123;-37.794;175.246;2023-07-29T00:37:36;11.38;;;5.05;;
27722;SDS011;15123;-37.794;175.246;2023-07-29T00:41:02;5.35;;;1.38;;
27722;SDS011;15123;-37.794;175.246;2023-07-29T00:44:30;4.65;;;1.35;;
27722;SDS011;15123;-37.794;175.246;2023-07-29T00:47:56;24.70;;;17.85;;
27722;SDS011;15123;-37.794;175.246;2023-07-29T00:51:22;4.20;;;1.00;;
27722;SDS011;15123;-37.794;175.246;2023-07-29T00:54:47;4.82;;;0.90;;
27722;SDS011;15123;-37.794;175.246;2023-07-29T00:58:11;6.38;;;1.08;;
27722;SDS011;15123;-37.794;175.246;2023-07-29T01:01:35;4.75;;;1.05;;
27722;SDS011;15123;-37.794;175.246;2023-07-29T01:05:00;5.85;;;1.15;;
27722;SDS011;15123;-37.794;175.246;2023-07-29T01:12:40;3.60;;;1.10;;
27722;SDS011;15123;-37.794;175.246;2023-07-29T01:15:55;5.10;;;1.23;;
27722;SDS011;15123;-37.794;175.246;2023-07-29T01:19:42;4.18;;;1.00;;
27722;SDS011;15123;-37.794;175.246;2023-07-29T01:23:02;4.60;;;0.90;;
27722;SDS011;15123;-37.794;175.246;2023-07-29T01:26:27;3.78;;;0.93;;
27722;SDS011;15123;-37.794;175.246;2023-07-29T01:29:51;3.75;;;0.90;;
27722;SDS011;15123;-37.794;175.246;2023-07-29T01:33:20;3.20;;;0.80;;
27722;SDS011;15123;-37.794;175.246;2023-07-29T01:36:47;5.25;;;1.27;;
27722;SDS011;15123;-37.794;175.246;2023-07-29T01:40:13;4.80;;;1.05;;
27722;SDS011;15123;-37.794;175.246;2023-07-29T01:43:37;3.28;;;0.70;;
27722;SDS011;15123;-37.794;175.246;2023-07-29T01:47:05;3.85;;;0.90;;
27722;SDS011;15123;-37.794;175.246;2023-07-29T01:50:29;3.47;;;0.90;;
27722;SDS011;15123;-37.794;175.246;2023-07-29T01:53:53;4.70;;;1.10;;
27722;SDS011;15123;-37.794;175.246;2023-07-29T01:57:18;4.82;;;0.90;;
27722;SDS011;15123;-37.794;175.246;2023-07-29T02:00:43;2.92;;;0.80;;
27722;SDS011;15123;-37.794;175.246;2023-07-29T02:04:07;1.88;;;0.60;;
27722;SDS011;15123;-37.794;175.246;2023-07-29T02:07:32;4.53;;;1.90;;
27722;SDS011;15123;-37.794;175.246;2023-07-29T02:10:56;4.40;;;0.85;;
27722;SDS011;15123;-37.794;175.246;2023-07-29T02:14:21;4.03;;;0.90;;
27722;SDS011;15123;-37.794;175.246;2023-07-29T02:17:45;3.97;;;0.85;;
27722;SDS011;15123;-37.794;175.246;2023-07-29T02:21:10;3.65;;;0.85;;
27722;SDS011;15123;-37.794;175.246;2023-07-29T02:24:35;3.55;;;0.80;;
27722;SDS011;15123;-37.794;175.246;2023-07-29T02:28:00;3.38;;;0.80;;
27722;SDS011;15123;-37.794;175.246;2023-07-29T02:31:25;4.05;;;0.88;;
27722;SDS011;15123;-37.794;175.246;2023-07-29T02:34:51;4.68;;;1.40;;
27722;SDS011;15123;-37.794;175.246;2023-07-29T02:38:15;4.93;;;1.00;;
27722;SDS011;15123;-37.794;175.246;2023-07-29T02:41:39;5.68;;;1.33;;
27722;SDS011;15123;-37.794;175.246;2023-07-29T02:45:04;4.82;;;1.17;;
27722;SDS011;15123;-37.794;175.246;2023-07-29T02:48:29;4.50;;;1.23;;
27722;SDS011;15123;-37.794;175.246;2023-07-29T02:51:54;4.65;;;1.08;;
27722;SDS011;15123;-37.794;175.246;2023-07-29T02:55:19;5.00;;;1.20;;
27722;SDS011;15123;-37.794;175.246;2023-07-29T02:58:44;5.00;;;1.33;;
27722;SDS011;15123;-37.794;175.246;2023-07-29T03:02:09;5.25;;;1.13;;
27722;SDS011;15123;-37.794;175.246;2023-07-29T03:05:34;7.60;;;1.52;;
27722;SDS011;15123;-37.794;175.246;2023-07-29T03:08:58;6.85;;;0.95;;
27722;SDS011;15123;-37.794;175.246;2023-07-29T03:12:22;4.70;;;1.00;;
27722;SDS011;15123;-37.794;175.246;2023-07-29T03:15:49;6.72;;;0.90;;
27722;SDS011;15123;-37.794;175.246;2023-07-29T03:19:19;4.78;;;0.90;;
27722;SDS011;15123;-37.794;175.246;2023-07-29T03:22:44;5.00;;;0.80;;
27722;SDS011;15123;-37.794;175.246;2023-07-29T03:26:10;5.55;;;1.02;;
27722;SDS011;15123;-37.794;175.246;2023-07-29T03:29:34;5.38;;;1.05;;
27722;SDS011;15123;-37.794;175.246;2023-07-29T03:32:59;5.15;;;1.20;;
27722;SDS011;15123;-37.794;175.246;2023-07-29T03:36:24;6.68;;;1.13;;
27722;SDS011;15123;-37.794;175.246;2023-07-29T03:39:50;4.93;;;0.70;;
27722;SDS011;15123;-37.794;175.246;2023-07-29T03:43:15;3.85;;;0.70;;
27722;SDS011;15123;-37.794;175.246;2023-07-29T03:46:40;4.95;;;1.20;;
27722;SDS011;15123;-37.794;175.246;2023-07-29T03:50:05;4.28;;;0.93;;
27722;SDS011;15123;-37.794;175.246;2023-07-29T03:53:30;4.47;;;0.77;;
27722;SDS011;15123;-37.794;175.246;2023-07-29T03:56:50;6.40;;;0.90;;
27722;SDS011;15123;-37.794;175.246;2023-07-29T04:00:08;7.60;;;1.55;;
27722;SDS011;15123;-37.794;175.246;2023-07-29T04:03:33;10.02;;;3.63;;
27722;SDS011;15123;-37.794;175.246;2023-07-29T04:06:58;6.38;;;1.95;;
27722;SDS011;15123;-37.794;175.246;2023-07-29T04:10:22;7.20;;;1.60;;
27722;SDS011;15123;-37.794;175.246;2023-07-29T04:13:48;6.38;;;0.90;;
27722;SDS011;15123;-37.794;175.246;2023-07-29T04:17:13;3.58;;;0.80;;
27722;SDS011;15123;-37.794;175.246;2023-07-29T04:20:38;4.30;;;0.82;;
27722;SDS011;15123;-37.794;175.246;2023-07-29T04:24:02;3.33;;;0.90;;
27722;SDS011;15123;-37.794;175.246;2023-07-29T04:27:27;7.03;;;1.10;;
27722;SDS011;15123;-37.794;175.246;2023-07-29T04:30:52;5.47;;;1.10;;
27722;SDS011;15123;-37.794;175.246;2023-07-29T04:34:16;6.03;;;1.17;;
27722;SDS011;15123;-37.794;175.246;2023-07-29T04:37:41;5.13;;;1.20;;
27722;SDS011;15123;-37.794;175.246;2023-07-29T04:41:06;3.83;;;0.90;;
27722;SDS011;15123;-37.794;175.246;2023-07-29T04:44:30;5.82;;;1.30;;
27722;SDS011;15123;-37.794;175.246;2023-07-29T04:47:57;4.78;;;1.10;;
27722;SDS011;15123;-37.794;175.246;2023-07-29T04:51:23;6.43;;;1.60;;
27722;SDS011;15123;-37.794;175.246;2023-07-29T04:54:51;10.45;;;5.97;;
27722;SDS011;15123;-37.794;175.246;2023-07-29T04:58:15;7.32;;;3.53;;
27722;SDS011;15123;-37.794;175.246;2023-07-29T05:01:39;12.48;;;5.00;;
27722;SDS011;15123;-37.794;175.246;2023-07-29T05:05:04;8.07;;;2.90;;
27722;SDS011;15123;-37.794;175.246;2023-07-29T05:08:29;6.97;;;2.20;;
27722;SDS011;15123;-37.794;175.246;2023-07-29T05:11:53;10.27;;;3.92;;
27722;SDS011;15123;-37.794;175.246;2023-07-29T05:15:18;6.45;;;2.17;;
27722;SDS011;15123;-37.794;175.246;2023-07-29T05:18:43;5.75;;;1.90;;
27722;SDS011;15123;-37.794;175.246;2023-07-29T05:22:09;6.97;;;2.67;;
27722;SDS011;15123;-37.794;175.246;2023-07-29T05:25:34;8.63;;;4.13;;
27722;SDS011;15123;-37.794;175.246;2023-07-29T05:28:58;11.40;;;4.38;;
27722;SDS011;15123;-37.794;175.246;2023-07-29T05:32:23;13.40;;;4.78;;
27722;SDS011;15123;-37.794;175.246;2023-07-29T05:35:47;6.85;;;2.85;;
27722;SDS011;15123;-37.794;175.246;2023-07-29T05:39:11;9.05;;;1.92;;
27722;SDS011;15123;-37.794;175.246;2023-07-29T05:42:36;8.40;;;2.17;;
27722;SDS011;15123;-37.794;175.246;2023-07-29T05:45:54;5.82;;;1.80;;
27722;SDS011;15123;-37.794;175.246;2023-07-29T05:49:19;8.02;;;2.30;;
27722;SDS011;15123;-37.794;175.246;2023-07-29T05:52:43;5.40;;;1.77;;
27722;SDS011;15123;-37.794;175.246;2023-07-29T05:56:07;7.13;;;2.40;;
27722;SDS011;15123;-37.794;175.246;2023-07-29T05:59:31;7.57;;;2.88;;
27722;SDS011;15123;-37.794;175.246;2023-07-29T06:02:58;10.77;;;2.90;;
27722;SDS011;15123;-37.794;175.246;2023-07-29T06:06:25;8.52;;;3.10;;
27722;SDS011;15123;-37.794;175.246;2023-07-29T06:09:50;7.25;;;2.50;;
27722;SDS011;15123;-37.794;175.246;2023-07-29T06:13:15;6.28;;;1.83;;
27722;SDS011;15123;-37.794;175.246;2023-07-29T06:16:39;6.72;;;1.63;;
27722;SDS011;15123;-37.794;175.246;2023-07-29T06:20:03;9.50;;;2.60;;
27722;SDS011;15123;-37.794;175.246;2023-07-29T06:23:28;7.43;;;2.45;;
27722;SDS011;15123;-37.794;175.246;2023-07-29T06:26:52;9.45;;;3.00;;
27722;SDS011;15123;-37.794;175.246;2023-07-29T06:30:17;8.65;;;4.10;;
27722;SDS011;15123;-37.794;175.246;2023-07-29T06:33:42;7.63;;;2.92;;
27722;SDS011;15123;-37.794;175.246;2023-07-29T06:37:06;6.25;;;2.40;;
27722;SDS011;15123;-37.794;175.246;2023-07-29T06:40:30;6.30;;;1.95;;
27722;SDS011;15123;-37.794;175.246;2023-07-29T06:43:55;6.95;;;2.40;;
27722;SDS011;15123;-37.794;175.246;2023-07-29T06:47:20;10.70;;;3.78;;
27722;SDS011;15123;-37.794;175.246;2023-07-29T06:50:44;9.75;;;3.00;;
27722;SDS011;15123;-37.794;175.246;2023-07-29T06:54:09;6.53;;;1.80;;
27722;SDS011;15123;-37.794;175.246;2023-07-29T06:57:33;8.73;;;3.30;;
27722;SDS011;15123;-37.794;175.246;2023-07-29T07:00:58;8.25;;;2.25;;
27722;SDS011;15123;-37.794;175.246;2023-07-29T07:04:22;7.85;;;2.80;;
27722;SDS011;15123;-37.794;175.246;2023-07-29T07:07:46;8.75;;;2.53;;
27722;SDS011;15123;-37.794;175.246;2023-07-29T07:11:10;7.30;;;2.63;;
27722;SDS011;15123;-37.794;175.246;2023-07-29T07:14:34;6.13;;;2.13;;
27722;SDS011;15123;-37.794;175.246;2023-07-29T07:17:59;6.75;;;2.10;;
27722;SDS011;15123;-37.794;175.246;2023-07-29T07:21:23;6.65;;;2.10;;
27722;SDS011;15123;-37.794;175.246;2023-07-29T07:24:49;6.00;;;1.67;;
27722;SDS011;15123;-37.794;175.246;2023-07-29T07:28:16;6.93;;;2.20;;
27722;SDS011;15123;-37.794;175.246;2023-07-29T07:31:41;6.72;;;1.98;;
27722;SDS011;15123;-37.794;175.246;2023-07-29T07:35:11;8.27;;;2.50;;
27722;SDS011;15123;-37.794;175.246;2023-07-29T07:38:36;6.55;;;2.22;;
27722;SDS011;15123;-37.794;175.246;2023-07-29T07:42:00;6.60;;;2.22;;
27722;SDS011;15123;-37.794;175.246;2023-07-29T07:45:25;6.97;;;2.70;;
27722;SDS011;15123;-37.794;175.246;2023-07-29T07:48:50;7.55;;;2.90;;
27722;SDS011;15123;-37.794;175.246;2023-07-29T07:52:14;8.80;;;3.10;;
27722;SDS011;15123;-37.794;175.246;2023-07-29T07:55:38;11.23;;;3.40;;
27722;SDS011;15123;-37.794;175.246;2023-07-29T07:59:02;9.13;;;3.17;;
27722;SDS011;15123;-37.794;175.246;2023-07-29T08:02:28;14.23;;;4.80;;
27722;SDS011;15123;-37.794;175.246;2023-07-29T08:05:53;34.78;;;9.63;;
27722;SDS011;15123;-37.794;175.246;2023-07-29T08:09:19;9.55;;;3.17;;
27722;SDS011;15123;-37.794;175.246;2023-07-29T08:12:43;7.45;;;2.00;;
27722;SDS011;15123;-37.794;175.246;2023-07-29T08:16:07;7.20;;;2.00;;
27722;SDS011;15123;-37.794;175.246;2023-07-29T08:19:31;8.15;;;2.30;;
27722;SDS011;15123;-37.794;175.246;2023-07-29T08:22:57;7.53;;;2.17;;
27722;SDS011;15123;-37.794;175.246;2023-07-29T08:26:22;9.07;;;1.90;;
27722;SDS011;15123;-37.794;175.246;2023-07-29T08:29:48;8.38;;;1.95;;
27722;SDS011;15123;-37.794;175.246;2023-07-29T08:33:13;10.63;;;2.15;;
27722;SDS011;15123;-37.794;175.246;2023-07-29T08:36:38;9.38;;;2.60;;
27722;SDS011;15123;-37.794;175.246;2023-07-29T08:40:03;9.98;;;2.13;;
27722;SDS011;15123;-37.794;175.246;2023-07-29T08:43:29;7.25;;;2.30;;
27722;SDS011;15123;-37.794;175.246;2023-07-29T08:46:53;23.63;;;8.35;;
27722;SDS011;15123;-37.794;175.246;2023-07-29T08:50:17;28.05;;;8.68;;
27722;SDS011;15123;-37.794;175.246;2023-07-29T08:53:42;27.55;;;8.38;;
27722;SDS011;15123;-37.794;175.246;2023-07-29T08:57:06;9.50;;;3.30;;
27722;SDS011;15123;-37.794;175.246;2023-07-29T09:00:31;33.63;;;13.32;;
27722;SDS011;15123;-37.794;175.246;2023-07-29T09:03:50;21.48;;;7.85;;
27722;SDS011;15123;-37.794;175.246;2023-07-29T09:07:14;8.43;;;2.78;;
27722;SDS011;15123;-37.794;175.246;2023-07-29T09:10:38;9.43;;;1.75;;
27722;SDS011;15123;-37.794;175.246;2023-07-29T09:14:02;7.78;;;1.75;;
27722;SDS011;15123;-37.794;175.246;2023-07-29T09:17:30;6.10;;;1.48;;
27722;SDS011;15123;-37.794;175.246;2023-07-29T09:20:55;7.28;;;1.48;;
27722;SDS011;15123;-37.794;175.246;2023-07-29T09:24:22;6.57;;;1.50;;
27722;SDS011;15123;-37.794;175.246;2023-07-29T09:27:48;7.80;;;1.83;;
27722;SDS011;15123;-37.794;175.246;2023-07-29T09:31:20;5.53;;;1.70;;
27722;SDS011;15123;-37.794;175.246;2023-07-29T09:34:45;7.47;;;2.00;;
27722;SDS011;15123;-37.794;175.246;2023-07-29T09:38:13;9.77;;;1.80;;
27722;SDS011;15123;-37.794;175.246;2023-07-29T09:41:39;7.53;;;1.52;;
27722;SDS011;15123;-37.794;175.246;2023-07-29T09:45:03;19.42;;;8.35;;
27722;SDS011;15123;-37.794;175.246;2023-07-29T09:48:31;24.83;;;11.73;;
27722;SDS011;15123;-37.794;175.246;2023-07-29T09:51:58;20.02;;;9.23;;
27722;SDS011;15123;-37.794;175.246;2023-07-29T09:55:24;21.08;;;8.70;;
27722;SDS011;15123;-37.794;175.246;2023-07-29T09:58:48;19.90;;;8.85;;
27722;SDS011;15123;-37.794;175.246;2023-07-29T10:02:14;18.00;;;7.45;;
27722;SDS011;15123;-37.794;175.246;2023-07-29T10:05:42;25.73;;;12.65;;
27722;SDS011;15123;-37.794;175.246;2023-07-29T10:09:06;17.40;;;7.80;;
27722;SDS011;15123;-37.794;175.246;2023-07-29T10:12:31;34.08;;;24.20;;
27722;SDS011;15123;-37.794;175.246;2023-07-29T10:15:55;58.40;;;39.88;;
27722;SDS011;15123;-37.794;175.246;2023-07-29T10:19:19;36.17;;;23.63;;
27722;SDS011;15123;-37.794;175.246;2023-07-29T10:22:45;33.03;;;19.35;;
27722;SDS011;15123;-37.794;175.246;2023-07-29T10:26:10;27.83;;;15.18;;
27722;SDS011;15123;-37.794;175.246;2023-07-29T10:29:37;23.75;;;12.10;;
27722;SDS011;15123;-37.794;175.246;2023-07-29T10:33:03;19.60;;;9.60;;
27722;SDS011;15123;-37.794;175.246;2023-07-29T10:36:29;19.67;;;9.88;;
27722;SDS011;15123;-37.794;175.246;2023-07-29T10:39:53;21.42;;;9.90;;
27722;SDS011;15123;-37.794;175.246;2023-07-29T10:43:19;18.80;;;8.60;;
27722;SDS011;15123;-37.794;175.246;2023-07-29T10:46:57;13.95;;;6.22;;
27722;SDS011;15123;-37.794;175.246;2023-07-29T10:50:21;16.48;;;7.18;;
27722;SDS011;15123;-37.794;175.246;2023-07-29T10:53:46;18.83;;;9.18;;
27722;SDS011;15123;-37.794;175.246;2023-07-29T10:57:14;119.70;;;30.40;;
27722;SDS011;15123;-37.794;175.246;2023-07-29T11:00:55;331.42;;;72.38;;
27722;SDS011;15123;-37.794;175.246;2023-07-29T11:07:49;301.45;;;70.80;;
27722;SDS011;15123;-37.794;175.246;2023-07-29T11:11:13;235.07;;;53.78;;
27722;SDS011;15123;-37.794;175.246;2023-07-29T11:14:37;233.52;;;53.53;;
27722;SDS011;15123;-37.794;175.246;2023-07-29T11:18:02;228.00;;;53.17;;
27722;SDS011;15123;-37.794;175.246;2023-07-29T11:21:27;109.32;;;29.67;;
27722;SDS011;15123;-37.794;175.246;2023-07-29T11:24:52;99.40;;;26.67;;
27722;SDS011;15123;-37.794;175.246;2023-07-29T11:28:16;75.97;;;21.52;;
27722;SDS011;15123;-37.794;175.246;2023-07-29T11:31:40;66.97;;;20.50;;
27722;SDS011;15123;-37.794;175.246;2023-07-29T11:35:05;90.25;;;24.95;;
27722;SDS011;15123;-37.794;175.246;2023-07-29T11:38:33;521.22;;;190.38;;
27722;SDS011;15123;-37.794;175.246;2023-07-29T11:41:57;166.40;;;51.42;;
27722;SDS011;15123;-37.794;175.246;2023-07-29T11:45:22;114.10;;;33.08;;
27722;SDS011;15123;-37.794;175.246;2023-07-29T11:49:00;72.60;;;24.42;;
27722;SDS011;15123;-37.794;175.246;2023-07-29T11:52:25;55.95;;;19.27;;
27722;SDS011;15123;-37.794;175.246;2023-07-29T11:55:53;41.92;;;16.95;;
27722;SDS011;15123;-37.794;175.246;2023-07-29T11:59:17;41.47;;;16.98;;
27722;SDS011;15123;-37.794;175.246;2023-07-29T12:02:42;42.60;;;17.38;;
27722;SDS011;15123;-37.794;175.246;2023-07-29T12:06:07;44.08;;;17.17;;
27722;SDS011;15123;-37.794;175.246;2023-07-29T12:09:25;40.22;;;16.85;;
27722;SDS011;15123;-37.794;175.246;2023-07-29T12:12:47;54.58;;;20.70;;
27722;SDS011;15123;-37.794;175.246;2023-07-29T12:16:16;48.40;;;19.75;;
27722;SDS011;15123;-37.794;175.246;2023-07-29T12:19:41;36.78;;;15.07;;
27722;SDS011;15123;-37.794;175.246;2023-07-29T12:23:06;40.80;;;16.45;;
27722;SDS011;15123;-37.794;175.246;2023-07-29T12:26:31;56.50;;;22.25;;
27722;SDS011;15123;-37.794;175.246;2023-07-29T12:29:56;46.80;;;19.02;;
27722;SDS011;15123;-37.794;175.246;2023-07-29T12:37:18;34.58;;;14.43;;
27722;SDS011;15123;-37.794;175.246;2023-07-29T12:40:42;95.20;;;28.98;;
27722;SDS011;15123;-37.794;175.246;2023-07-29T12:44:07;104.00;;;31.67;;
27722;SDS011;15123;-37.794;175.246;2023-07-29T12:47:31;38.97;;;16.20;;
27722;SDS011;15123;-37.794;175.246;2023-07-29T12:50:56;33.15;;;14.48;;
27722;SDS011;15123;-37.794;175.246;2023-07-29T12:54:20;29.52;;;13.50;;
27722;SDS011;15123;-37.794;175.246;2023-07-29T12:57:44;30.23;;;14.00;;
27722;SDS011;15123;-37.794;175.246;2023-07-29T13:01:08;31.08;;;14.48;;
27722;SDS011;15123;-37.794;175.246;2023-07-29T13:04:35;27.27;;;14.48;;
27722;SDS011;15123;-37.794;175.246;2023-07-29T13:07:59;27.13;;;14.15;;
27722;SDS011;15123;-37.794;175.246;2023-07-29T13:11:17;28.80;;;15.48;;
27722;SDS011;15123;-37.794;175.246;2023-07-29T13:14:35;82.60;;;30.92;;
27722;SDS011;15123;-37.794;175.246;2023-07-29T13:18:00;109.10;;;38.50;;
27722;SDS011;15123;-37.794;175.246;2023-07-29T13:21:24;159.55;;;50.97;;
27722;SDS011;15123;-37.794;175.246;2023-07-29T13:24:49;83.32;;;31.75;;
27722;SDS011;15123;-37.794;175.246;2023-07-29T13:28:14;67.13;;;27.17;;
27722;SDS011;15123;-37.794;175.246;2023-07-29T13:31:38;54.95;;;24.15;;
27722;SDS011;15123;-37.794;175.246;2023-07-29T13:35:02;53.95;;;22.20;;
27722;SDS011;15123;-37.794;175.246;2023-07-29T13:38:27;45.63;;;19.90;;
27722;SDS011;15123;-37.794;175.246;2023-07-29T13:41:53;38.03;;;17.13;;
27722;SDS011;15123;-37.794;175.246;2023-07-29T13:45:18;36.60;;;16.05;;
27722;SDS011;15123;-37.794;175.246;2023-07-29T13:48:42;34.53;;;15.98;;
27722;SDS011;15123;-37.794;175.246;2023-07-29T13:52:07;82.38;;;28.83;;
27722;SDS011;15123;-37.794;175.246;2023-07-29T13:55:32;133.55;;;36.33;;
27722;SDS011;15123;-37.794;175.246;2023-07-29T13:58:56;55.00;;;22.45;;
27722;SDS011;15123;-37.794;175.246;2023-07-29T14:02:21;94.22;;;33.13;;
27722;SDS011;15123;-37.794;175.246;2023-07-29T14:05:47;90.00;;;36.15;;
27722;SDS011;15123;-37.794;175.246;2023-07-29T14:09:12;65.18;;;28.50;;
27722;SDS011;15123;-37.794;175.246;2023-07-29T14:12:37;43.53;;;20.45;;
27722;SDS011;15123;-37.794;175.246;2023-07-29T14:16:01;35.60;;;17.83;;
27722;SDS011;15123;-37.794;175.246;2023-07-29T14:19:26;35.25;;;17.65;;
27722;SDS011;15123;-37.794;175.246;2023-07-29T14:22:50;37.45;;;17.90;;
27722;SDS011;15123;-37.794;175.246;2023-07-29T14:26:14;38.10;;;17.05;;
27722;SDS011;15123;-37.794;175.246;2023-07-29T14:29:38;39.47;;;20.10;;
27722;SDS011;15123;-37.794;175.246;2023-07-29T14:33:03;37.47;;;17.95;;
27722;SDS011;15123;-37.794;175.246;2023-07-29T14:36:27;36.55;;;17.15;;
27722;SDS011;15123;-37.794;175.246;2023-07-29T14:39:52;30.20;;;15.50;;
27722;SDS011;15123;-37.794;175.246;2023-07-29T14:43:16;25.00;;;12.48;;
27722;SDS011;15123;-37.794;175.246;2023-07-29T14:46:41;31.92;;;15.07;;
27722;SDS011;15123;-37.794;175.246;2023-07-29T14:50:06;52.83;;;25.48;;
27722;SDS011;15123;-37.794;175.246;2023-07-29T14:53:31;141.80;;;44.97;;
27722;SDS011;15123;-37.794;175.246;2023-07-29T14:56:56;80.53;;;25.33;;
27722;SDS011;15123;-37.794;175.246;2023-07-29T15:00:21;47.22;;;20.35;;
27722;SDS011;15123;-37.794;175.246;2023-07-29T15:03:45;46.67;;;20.52;;
27722;SDS011;15123;-37.794;175.246;2023-07-29T15:07:09;73.07;;;29.30;;
27722;SDS011;15123;-37.794;175.246;2023-07-29T15:10:34;57.25;;;24.25;;
27722;SDS011;15123;-37.794;175.246;2023-07-29T15:13:58;43.40;;;20.33;;
27722;SDS011;15123;-37.794;175.246;2023-07-29T15:17:22;36.65;;;17.90;;
27722;SDS011;15123;-37.794;175.246;2023-07-29T15:20:46;36.10;;;17.70;;
27722;SDS011;15123;-37.794;175.246;2023-07-29T15:24:11;31.63;;;14.68;;
27722;SDS011;15123;-37.794;175.246;2023-07-29T15:27:39;30.33;;;12.35;;
27722;SDS011;15123;-37.794;175.246;2023-07-29T15:31:03;26.30;;;11.43;;
27722;SDS011;15123;-37.794;175.246;2023-07-29T15:34:28;22.63;;;9.77;;
27722;SDS011;15123;-37.794;175.246;2023-07-29T15:37:52;21.80;;;8.85;;
27722;SDS011;15123;-37.794;175.246;2023-07-29T15:41:17;20.10;;;8.70;;
27722;SDS011;15123;-37.794;175.246;2023-07-29T15:44:42;19.33;;;8.40;;
27722;SDS011;15123;-37.794;175.246;2023-07-29T15:48:06;18.73;;;9.05;;
27722;SDS011;15123;-37.794;175.246;2023-07-29T15:51:31;21.35;;;9.95;;
27722;SDS011;15123;-37.794;175.246;2023-07-29T15:54:55;26.15;;;10.68;;
27722;SDS011;15123;-37.794;175.246;2023-07-29T15:58:13;21.00;;;9.80;;
27722;SDS011;15123;-37.794;175.246;2023-07-29T16:01:38;24.90;;;10.38;;
27722;SDS011;15123;-37.794;175.246;2023-07-29T16:05:03;20.25;;;8.95;;
27722;SDS011;15123;-37.794;175.246;2023-07-29T16:08:28;54.80;;;30.45;;
27722;SDS011;15123;-37.794;175.246;2023-07-29T16:11:53;23.85;;;12.35;;
27722;SDS011;15123;-37.794;175.246;2023-07-29T16:15:17;21.00;;;11.05;;
27722;SDS011;15123;-37.794;175.246;2023-07-29T16:18:42;22.70;;;10.38;;
27722;SDS011;15123;-37.794;175.246;2023-07-29T16:22:06;17.33;;;9.38;;
27722;SDS011;15123;-37.794;175.246;2023-07-29T16:25:31;19.25;;;9.45;;
27722;SDS011;15123;-37.794;175.246;2023-07-29T16:28:55;17.65;;;9.52;;
27722;SDS011;15123;-37.794;175.246;2023-07-29T16:32:21;21.88;;;9.95;;
27722;SDS011;15123;-37.794;175.246;2023-07-29T16:35:45;20.45;;;9.05;;
27722;SDS011;15123;-37.794;175.246;2023-07-29T16:39:10;16.27;;;9.20;;
27722;SDS011;15123;-37.794;175.246;2023-07-29T16:42:35;19.00;;;9.32;;
27722;SDS011;15123;-37.794;175.246;2023-07-29T16:45:59;16.20;;;8.90;;
27722;SDS011;15123;-37.794;175.246;2023-07-29T16:49:24;16.42;;;8.07;;
27722;SDS011;15123;-37.794;175.246;2023-07-29T16:52:49;16.77;;;9.13;;
27722;SDS011;15123;-37.794;175.246;2023-07-29T16:56:14;15.77;;;8.18;;
27722;SDS011;15123;-37.794;175.246;2023-07-29T16:59:39;15.40;;;7.95;;
27722;SDS011;15123;-37.794;175.246;2023-07-29T17:03:03;14.45;;;7.35;;
27722;SDS011;15123;-37.794;175.246;2023-07-29T17:06:27;16.65;;;8.02;;
27722;SDS011;15123;-37.794;175.246;2023-07-29T17:09:51;15.25;;;8.05;;
27722;SDS011;15123;-37.794;175.246;2023-07-29T17:13:09;15.23;;;7.95;;
27722;SDS011;15123;-37.794;175.246;2023-07-29T17:16:26;15.88;;;7.22;;
27722;SDS011;15123;-37.794;175.246;2023-07-29T17:19:50;24.30;;;11.27;;
27722;SDS011;15123;-37.794;175.246;2023-07-29T17:23:14;23.05;;;11.55;;
27722;SDS011;15123;-37.794;175.246;2023-07-29T17:26:39;21.83;;;10.90;;
27722;SDS011;15123;-37.794;175.246;2023-07-29T17:30:04;18.92;;;10.25;;
27722;SDS011;15123;-37.794;175.246;2023-07-29T17:33:29;17.17;;;9.05;;
27722;SDS011;15123;-37.794;175.246;2023-07-29T17:36:54;14.30;;;8.43;;
27722;SDS011;15123;-37.794;175.246;2023-07-29T17:40:19;16.80;;;8.00;;
27722;SDS011;15123;-37.794;175.246;2023-07-29T17:43:44;15.00;;;7.78;;
27722;SDS011;15123;-37.794;175.246;2023-07-29T17:47:09;15.18;;;8.00;;
27722;SDS011;15123;-37.794;175.246;2023-07-29T17:50:35;16.13;;;8.35;;
27722;SDS011;15123;-37.794;175.246;2023-07-29T17:53:59;19.60;;;9.02;;
27722;SDS011;15123;-37.794;175.246;2023-07-29T17:57:23;17.58;;;9.10;;
27722;SDS011;15123;-37.794;175.246;2023-07-29T18:00:50;17.90;;;8.13;;
27722;SDS011;15123;-37.794;175.246;2023-07-29T18:04:23;17.75;;;9.40;;
27722;SDS011;15123;-37.794;175.246;2023-07-29T18:07:48;17.33;;;9.02;;
27722;SDS011;15123;-37.794;175.246;2023-07-29T18:11:13;19.30;;;8.85;;
27722;SDS011;15123;-37.794;175.246;2023-07-29T18:14:38;15.10;;;8.13;;
27722;SDS011;15123;-37.794;175.246;2023-07-29T18:18:04;14.10;;;7.28;;
27722;SDS011;15123;-37.794;175.246;2023-07-29T18:21:28;17.05;;;8.93;;
27722;SDS011;15123;-37.794;175.246;2023-07-29T18:24:53;15.10;;;7.93;;
27722;SDS011;15123;-37.794;175.246;2023-07-29T18:28:17;15.60;;;7.35;;
27722;SDS011;15123;-37.794;175.246;2023-07-29T18:31:42;14.38;;;7.20;;
27722;SDS011;15123;-37.794;175.246;2023-07-29T18:35:08;11.93;;;6.47;;
27722;SDS011;15123;-37.794;175.246;2023-07-29T18:38:35;13.93;;;6.70;;
27722;SDS011;15123;-37.794;175.246;2023-07-29T18:42:00;15.05;;;7.20;;
27722;SDS011;15123;-37.794;175.246;2023-07-29T18:45:24;17.42;;;7.10;;
27722;SDS011;15123;-37.794;175.246;2023-07-29T18:48:49;19.10;;;7.50;;
27722;SDS011;15123;-37.794;175.246;2023-07-29T18:52:14;14.45;;;7.70;;
27722;SDS011;15123;-37.794;175.246;2023-07-29T18:55:38;14.90;;;7.28;;
27722;SDS011;15123;-37.794;175.246;2023-07-29T18:59:02;12.63;;;6.00;;
27722;SDS011;15123;-37.794;175.246;2023-07-29T19:02:28;12.88;;;5.50;;
27722;SDS011;15123;-37.794;175.246;2023-07-29T19:05:47;13.20;;;6.25;;
27722;SDS011;15123;-37.794;175.246;2023-07-29T19:09:04;12.05;;;5.63;;
27722;SDS011;15123;-37.794;175.246;2023-07-29T19:12:29;13.40;;;6.45;;
27722;SDS011;15123;-37.794;175.246;2023-07-29T19:15:58;12.35;;;6.05;;
27722;SDS011;15123;-37.794;175.246;2023-07-29T19:19:29;13.00;;;5.72;;
27722;SDS011;15123;-37.794;175.246;2023-07-29T19:22:53;13.30;;;5.80;;
27722;SDS011;15123;-37.794;175.246;2023-07-29T19:26:17;16.27;;;6.07;;
27722;SDS011;15123;-37.794;175.246;2023-07-29T19:29:41;12.73;;;5.88;;
27722;SDS011;15123;-37.794;175.246;2023-07-29T19:33:06;13.13;;;5.43;;
27722;SDS011;15123;-37.794;175.246;2023-07-29T19:36:30;12.63;;;5.60;;